KLAR/LAR METAR and TAF weather

Enter ICAO airport designator
Station Type Date Time Source
KLAR METAR 2020/01/19 22:53 UTC NOAA

KLAR 192253Z AUTO 06007KT 10SM CLR M03/M09 A3038 RMK AO2 SLP334 T10331089


Station Type Date Time Source
KLAR Decoded METAR 2020/01/19 22:53 UTC NOAA

LARAMIE REGIONAL AIRPORT, WY, United States (KLAR) 41-19N 105-40W 2216M
Jan 19, 2020 - 05:53 PM EST / 2020.01.19 2253 UTC
Wind: from the ENE (060 degrees) at 8 MPH (7 KT):0
Visibility: 10 mile(s):0
Sky conditions: clear
Temperature: 26.1 F (-3.3 C)
Windchill: 17 F (-8 C):1
Dew Point: 16.0 F (-8.9 C)
Relative Humidity: 65%
Pressure (altimeter): 30.38 in. Hg (1028 hPa)
ob: KLAR 192253Z AUTO 06007KT 10SM CLR M03/M09 A3038 RMK AO2 SLP334 T10331089
cycle: 23

Station Type Date Time Source
KLAR TAF 2020/01/19 18:24 UTC NOAA

TAF KLAR 191721Z 1918/2018 26010KT P6SM SKC
FM192000 30010KT P6SM SKC
FM200100 22005KT P6SM FEW060
FM200800 22007KT P6SM SKC

Example: see airport list